createdAt,value
2023-04-21T00:01:29.861Z,13.51
2023-04-21T00:03:57.421Z,13.54
2023-04-21T00:06:24.462Z,13.41
2023-04-21T00:08:51.433Z,13.46
2023-04-21T00:11:18.860Z,13.59
2023-04-21T00:13:46.530Z,13.56
2023-04-21T00:16:13.656Z,13.43
2023-04-21T00:18:41.036Z,13.44
2023-04-21T00:21:08.011Z,13.29
2023-04-21T00:23:35.151Z,13.31
2023-04-21T00:26:03.057Z,13.36
2023-04-21T00:28:30.350Z,13.23
2023-04-21T00:30:59.040Z,13.36
2023-04-21T00:33:26.704Z,13.35
2023-04-21T00:35:57.170Z,13.25
2023-04-21T00:38:24.601Z,13.33
2023-04-21T00:40:51.611Z,13.22
2023-04-21T00:43:19.042Z,13.32
2023-04-21T00:45:47.159Z,13.38
2023-04-21T00:48:14.135Z,13.30
2023-04-21T00:50:41.582Z,13.29
2023-04-21T00:53:09.896Z,13.31
2023-04-21T00:55:37.712Z,13.32
2023-04-21T00:58:05.527Z,13.30
2023-04-21T01:00:33.289Z,13.27
2023-04-21T01:03:01.835Z,13.22
2023-04-21T01:05:29.533Z,13.11
2023-04-21T01:07:56.577Z,12.99
2023-04-21T01:10:23.603Z,12.97
2023-04-21T01:12:52.020Z,13.04
2023-04-21T01:15:19.231Z,13.13
2023-04-21T01:17:47.022Z,13.08
2023-04-21T01:20:15.378Z,13.17
2023-04-21T01:22:44.906Z,13.19
2023-04-21T01:25:12.334Z,13.33
2023-04-21T01:27:39.357Z,13.23
2023-04-21T01:30:07.561Z,13.37
2023-04-21T01:32:36.177Z,13.14
2023-04-21T01:35:03.773Z,13.14
2023-04-21T01:37:33.142Z,12.70
2023-04-21T01:40:05.389Z,12.98
2023-04-21T01:42:36.057Z,13.01
2023-04-21T01:45:03.952Z,13.11
2023-04-21T01:47:31.034Z,12.92
2023-04-21T01:49:58.020Z,12.90
2023-04-21T01:52:25.526Z,12.89
2023-04-21T01:54:54.672Z,12.94
2023-04-21T01:57:21.849Z,12.92
2023-04-21T01:59:51.309Z,12.95
2023-04-21T02:02:18.539Z,12.92
2023-04-21T02:04:46.143Z,12.90
2023-04-21T02:07:13.528Z,12.97
2023-04-21T02:09:42.562Z,12.81
2023-04-21T02:12:09.910Z,12.82
2023-04-21T02:14:38.174Z,12.77
2023-04-21T02:17:07.953Z,12.86
2023-04-21T02:19:35.420Z,12.76
2023-04-21T02:22:02.548Z,12.83
2023-04-21T02:24:29.981Z,12.90
2023-04-21T02:26:58.561Z,12.90
2023-04-21T02:29:28.702Z,12.89
2023-04-21T02:32:05.356Z,12.89
2023-04-21T02:34:38.023Z,13.16
2023-04-21T02:37:06.304Z,13.33
2023-04-21T02:39:33.746Z,13.07
2023-04-21T02:42:02.075Z,13.07
2023-04-21T02:44:29.501Z,13.14
2023-04-21T02:46:56.695Z,13.11
2023-04-21T02:49:24.102Z,13.19
2023-04-21T02:51:51.223Z,13.17
2023-04-21T02:54:18.184Z,13.16
2023-04-21T02:56:45.202Z,13.30
2023-04-21T02:59:16.622Z,13.04
2023-04-21T03:01:43.864Z,13.21
2023-04-21T03:04:10.940Z,12.91
2023-04-21T03:06:39.193Z,12.84
2023-04-21T03:09:06.355Z,12.73
2023-04-21T03:11:33.736Z,12.73
2023-04-21T03:14:01.093Z,12.62
2023-04-21T03:16:28.170Z,12.65
2023-04-21T03:18:55.670Z,12.92
2023-04-21T03:21:23.028Z,12.79
2023-04-21T03:23:50.051Z,12.63
2023-04-21T03:26:17.447Z,12.77
2023-04-21T03:28:45.326Z,12.66
2023-04-21T03:31:13.895Z,12.63
2023-04-21T03:33:40.892Z,12.57
2023-04-21T03:36:08.206Z,12.54
2023-04-21T03:38:35.716Z,12.54
2023-04-21T03:41:05.255Z,12.55
2023-04-21T03:43:32.911Z,12.48
2023-04-21T03:45:59.874Z,12.49
2023-04-21T03:48:28.698Z,12.55
2023-04-21T03:50:55.844Z,12.56
2023-04-21T03:53:23.509Z,12.66
2023-04-21T03:55:51.052Z,12.58
2023-04-21T03:58:18.679Z,12.55
2023-04-21T04:00:46.031Z,12.48
2023-04-21T04:03:13.239Z,12.45
2023-04-21T04:05:40.869Z,12.40
2023-04-21T04:08:07.913Z,12.45
2023-04-21T04:10:35.076Z,12.32
2023-04-21T04:13:02.396Z,12.37
2023-04-21T04:15:29.793Z,12.39
2023-04-21T04:17:56.830Z,12.40
2023-04-21T04:20:24.674Z,12.50
2023-04-21T04:22:52.079Z,12.43
2023-04-21T04:25:19.163Z,12.26
2023-04-21T04:27:46.911Z,12.25
2023-04-21T04:30:14.385Z,12.08
2023-04-21T04:32:41.925Z,12.25
2023-04-21T04:35:10.212Z,12.35
2023-04-21T04:37:37.697Z,12.42
2023-04-21T04:40:06.455Z,12.48
2023-04-21T04:42:34.763Z,12.31
2023-04-21T04:45:02.065Z,12.22
2023-04-21T04:47:29.749Z,12.37
2023-04-21T04:49:57.080Z,12.45
2023-04-21T04:52:24.034Z,12.33
2023-04-21T04:54:51.448Z,12.45
2023-04-21T04:57:18.809Z,12.41
2023-04-21T04:59:46.505Z,12.40
2023-04-21T05:02:14.004Z,12.38
2023-04-21T05:04:41.179Z,12.26
2023-04-21T05:07:08.750Z,12.19
2023-04-21T05:09:36.155Z,12.18
2023-04-21T05:12:03.987Z,12.27
2023-04-21T05:14:31.373Z,12.35
2023-04-21T05:16:59.258Z,12.29
2023-04-21T05:19:26.273Z,12.23
2023-04-21T05:21:54.438Z,12.20
2023-04-21T05:24:24.220Z,11.92
2023-04-21T05:26:51.170Z,11.94
2023-04-21T05:29:18.976Z,12.27
2023-04-21T05:31:46.369Z,12.43
2023-04-21T05:34:13.402Z,12.26
2023-04-21T05:36:44.151Z,12.38
2023-04-21T05:39:11.185Z,12.17
2023-04-21T05:41:38.180Z,12.26
2023-04-21T05:44:05.698Z,12.34
2023-04-21T05:46:34.759Z,12.10
2023-04-21T05:49:02.545Z,12.17
2023-04-21T05:51:29.982Z,12.05
2023-04-21T05:53:57.529Z,12.16
2023-04-21T05:56:24.901Z,12.62
2023-04-21T05:58:52.223Z,12.65
2023-04-21T06:01:19.170Z,12.29
2023-04-21T06:03:50.141Z,12.60
2023-04-21T06:06:18.213Z,12.72
2023-04-21T06:08:45.614Z,12.67
2023-04-21T06:11:13.147Z,12.63
2023-04-21T06:13:43.010Z,12.77
2023-04-21T06:16:10.659Z,12.82
2023-04-21T06:18:38.233Z,12.92
2023-04-21T06:21:05.854Z,12.68
2023-04-21T06:23:33.265Z,12.54
2023-04-21T06:26:05.474Z,12.68
2023-04-21T06:28:33.319Z,12.99
2023-04-21T06:31:06.895Z,13.01
2023-04-21T06:33:36.238Z,12.67
2023-04-21T06:36:03.500Z,12.67
2023-04-21T06:38:31.050Z,12.76
2023-04-21T06:40:58.542Z,12.92
2023-04-21T06:43:26.081Z,12.95
2023-04-21T06:45:53.097Z,12.92
2023-04-21T06:48:20.278Z,12.90
2023-04-21T06:50:47.837Z,13.01
2023-04-21T06:53:15.527Z,13.10
2023-04-21T06:55:43.101Z,13.06
2023-04-21T06:58:11.353Z,13.10
2023-04-21T07:00:38.601Z,13.00
2023-04-21T07:03:06.582Z,13.22
2023-04-21T07:05:33.711Z,12.98
2023-04-21T07:08:01.455Z,13.19
2023-04-21T07:10:29.093Z,12.90
2023-04-21T07:12:56.499Z,12.90
2023-04-21T07:15:23.947Z,13.00
2023-04-21T07:17:51.501Z,12.96
2023-04-21T07:20:19.067Z,13.31
2023-04-21T07:22:46.493Z,13.33
2023-04-21T07:25:13.846Z,13.23
2023-04-21T07:27:40.956Z,13.19
2023-04-21T07:30:08.655Z,13.39
2023-04-21T07:32:38.461Z,13.19
2023-04-21T07:35:06.958Z,13.35
2023-04-21T07:37:34.494Z,13.49
2023-04-21T07:40:01.956Z,13.57
2023-04-21T07:42:29.372Z,13.28
2023-04-21T07:44:57.468Z,13.57
2023-04-21T07:47:25.009Z,13.65
2023-04-21T07:49:52.064Z,13.91
2023-04-21T07:52:19.445Z,13.79
2023-04-21T07:54:46.378Z,14.17
2023-04-21T07:57:13.854Z,14.21
2023-04-21T07:59:41.288Z,13.94
2023-04-21T08:02:09.032Z,14.14
2023-04-21T08:04:36.766Z,14.17
2023-04-21T08:07:04.474Z,13.92
2023-04-21T08:09:31.812Z,14.20
2023-04-21T08:11:59.283Z,13.79
2023-04-21T08:14:27.179Z,13.85
2023-04-21T08:16:56.714Z,14.03
2023-04-21T08:19:24.930Z,14.51
2023-04-21T08:21:52.325Z,14.65
2023-04-21T08:24:20.076Z,14.54
2023-04-21T08:26:48.050Z,14.47
2023-04-21T08:29:15.708Z,14.59
2023-04-21T08:31:42.752Z,14.66
2023-04-21T08:34:10.236Z,14.56
2023-04-21T08:36:37.923Z,14.22
2023-04-21T08:39:05.504Z,14.15
2023-04-21T08:41:32.898Z,13.71
2023-04-21T08:44:00.393Z,14.33
2023-04-21T08:46:28.634Z,14.49
2023-04-21T08:48:57.004Z,14.18
2023-04-21T08:51:27.526Z,14.55
2023-04-21T08:53:55.549Z,14.56
2023-04-21T08:56:24.837Z,14.78
2023-04-21T08:58:52.413Z,14.34
2023-04-21T09:01:20.109Z,14.65
2023-04-21T09:03:47.780Z,14.70
2023-04-21T09:06:15.430Z,14.86
2023-04-21T09:08:44.973Z,15.15
2023-04-21T09:11:15.846Z,15.15
2023-04-21T09:13:44.514Z,14.64
2023-04-21T09:16:21.713Z,14.90
2023-04-21T09:18:50.429Z,14.83
2023-04-21T09:21:19.661Z,14.83
2023-04-21T09:23:52.296Z,15.03
2023-04-21T09:26:25.001Z,14.99
2023-04-21T09:28:53.149Z,15.06
2023-04-21T09:31:25.357Z,15.43
2023-04-21T09:33:59.641Z,15.48
2023-04-21T09:36:31.700Z,16.02
2023-04-21T09:41:32.988Z,16.09
2023-04-21T09:44:01.659Z,15.98
2023-04-21T09:46:36.046Z,15.62
2023-04-21T09:49:03.942Z,15.10
2023-04-21T09:51:56.372Z,14.87
2023-04-21T09:56:56.319Z,16.15
2023-04-21T09:59:31.321Z,15.77
2023-04-21T10:02:00.155Z,16.01
2023-04-21T10:04:30.672Z,17.26
2023-04-21T10:07:00.574Z,17.09
2023-04-21T10:09:37.387Z,17.07
2023-04-21T10:12:06.943Z,16.95
2023-04-21T10:14:36.290Z,15.72
2023-04-21T10:17:08.987Z,16.02
2023-04-21T10:19:40.744Z,16.96
2023-04-21T10:22:11.105Z,17.31
2023-04-21T10:24:40.404Z,17.17
2023-04-21T10:27:40.342Z,17.46
2023-04-21T10:30:28.825Z,17.77
2023-04-21T10:33:06.302Z,17.22
2023-04-21T10:36:04.738Z,18.04
2023-04-21T10:38:43.206Z,18.22
2023-04-21T10:41:33.382Z,18.50
2023-04-21T10:44:14.146Z,18.74
2023-04-21T10:46:52.346Z,18.69
2023-04-21T10:49:30.527Z,18.85
2023-04-21T10:52:03.051Z,18.55
2023-04-21T10:54:47.958Z,19.27
2023-04-21T10:57:18.668Z,18.55
2023-04-21T10:59:47.380Z,19.14
2023-04-21T11:02:16.581Z,19.43
2023-04-21T11:04:49.191Z,19.31
2023-04-21T11:07:34.744Z,19.79
2023-04-21T11:10:05.105Z,19.19
2023-04-21T11:12:38.473Z,19.79
2023-04-21T11:15:09.078Z,19.52
2023-04-21T11:17:38.304Z,19.71
2023-04-21T11:20:06.944Z,20.98
2023-04-21T11:22:36.370Z,23.35
2023-04-21T11:25:04.645Z,23.04
2023-04-21T11:27:31.951Z,21.18
2023-04-21T11:29:59.461Z,23.58
2023-04-21T11:32:26.862Z,24.67
2023-04-21T11:34:54.831Z,24.98
2023-04-21T11:37:27.833Z,25.64
2023-04-21T11:40:01.527Z,26.52
2023-04-21T11:42:29.078Z,24.38
2023-04-21T11:44:57.227Z,24.87
2023-04-21T11:47:27.228Z,26.79
2023-04-21T11:50:01.938Z,26.57
2023-04-21T11:52:36.058Z,27.00
2023-04-21T11:55:11.434Z,26.81
2023-04-21T11:57:41.113Z,27.20
2023-04-21T12:00:14.497Z,28.44
2023-04-21T12:02:42.709Z,27.32
2023-04-21T12:05:12.411Z,26.59
2023-04-21T12:08:15.497Z,28.10
2023-04-21T12:10:47.158Z,27.12
2023-04-21T12:13:22.150Z,26.85
2023-04-21T12:15:49.661Z,28.33
2023-04-21T12:18:17.375Z,27.55
2023-04-21T12:20:52.215Z,28.05
2023-04-21T12:23:19.628Z,28.75
2023-04-21T12:25:47.267Z,29.92
2023-04-21T12:28:18.017Z,29.40
2023-04-21T12:30:45.202Z,29.19
2023-04-21T12:33:13.151Z,29.17
2023-04-21T12:35:40.385Z,27.11
2023-04-21T12:38:07.863Z,28.30
2023-04-21T12:40:36.207Z,29.68
2023-04-21T12:43:03.657Z,29.04
2023-04-21T12:45:32.599Z,28.23
2023-04-21T12:48:00.399Z,28.96
2023-04-21T12:50:27.449Z,29.75
2023-04-21T12:52:55.276Z,28.81
2023-04-21T12:55:26.362Z,29.46
2023-04-21T12:57:53.865Z,28.32
2023-04-21T13:00:21.146Z,28.40
2023-04-21T13:02:48.670Z,27.33
2023-04-21T13:05:16.033Z,27.61
2023-04-21T13:07:43.723Z,28.57
2023-04-21T13:10:11.317Z,29.58
2023-04-21T13:12:38.742Z,30.45
2023-04-21T13:15:06.751Z,30.20
2023-04-21T13:17:33.865Z,31.33
2023-04-21T13:20:01.447Z,29.87
2023-04-21T13:22:29.362Z,29.05
2023-04-21T13:24:56.692Z,28.32
2023-04-21T13:27:24.070Z,30.58
2023-04-21T13:29:51.149Z,30.20
2023-04-21T13:32:18.628Z,29.34
2023-04-21T13:34:46.015Z,28.92
2023-04-21T13:37:16.986Z,29.72
2023-04-21T13:39:44.615Z,28.43
2023-04-21T13:42:11.746Z,28.73
2023-04-21T13:44:39.042Z,29.82
2023-04-21T13:47:08.687Z,28.44
2023-04-21T13:49:36.619Z,26.45
2023-04-21T13:52:04.354Z,25.31
2023-04-21T13:54:32.092Z,27.94
2023-04-21T13:56:59.650Z,28.61
2023-04-21T13:59:27.404Z,29.42
2023-04-21T14:01:54.938Z,28.78
2023-04-21T14:04:22.698Z,25.73
2023-04-21T14:06:51.175Z,25.54
2023-04-21T14:09:18.494Z,25.56
2023-04-21T14:11:46.076Z,25.21
2023-04-21T14:16:41.804Z,24.53
2023-04-21T14:19:10.321Z,24.53
2023-04-21T14:21:37.750Z,24.63
2023-04-21T14:24:07.675Z,24.59
2023-04-21T14:26:34.881Z,24.56
2023-04-21T14:29:02.389Z,24.73
2023-04-21T14:31:30.012Z,25.24
2023-04-21T14:33:57.017Z,24.88
2023-04-21T14:36:24.459Z,25.20
2023-04-21T14:38:51.857Z,24.80
2023-04-21T14:41:18.886Z,24.74
2023-04-21T14:43:47.706Z,24.86
2023-04-21T14:46:16.834Z,24.93
2023-04-21T14:48:44.977Z,24.97
2023-04-21T14:51:12.312Z,25.29
2023-04-21T14:53:40.719Z,25.08
2023-04-21T14:56:07.807Z,23.64
2023-04-21T14:58:35.219Z,24.31
2023-04-21T15:01:02.375Z,24.99
2023-04-21T15:03:29.655Z,25.43
2023-04-21T15:05:57.147Z,25.39
2023-04-21T15:08:24.287Z,24.92
2023-04-21T15:10:51.667Z,24.82
2023-04-21T15:13:19.115Z,24.25
2023-04-21T15:15:46.867Z,24.13
2023-04-21T15:18:14.297Z,23.70
2023-04-21T15:20:45.636Z,23.83
2023-04-21T15:23:14.051Z,24.59
2023-04-21T15:25:41.679Z,24.42
2023-04-21T15:28:08.815Z,24.05
2023-04-21T15:30:36.291Z,23.97
2023-04-21T15:33:03.293Z,23.43
2023-04-21T15:35:30.422Z,22.67
2023-04-21T15:37:57.813Z,23.14
2023-04-21T15:40:25.259Z,22.78
2023-04-21T15:42:53.122Z,22.79
2023-04-21T15:45:20.632Z,22.49
2023-04-21T15:47:47.635Z,22.78
2023-04-21T15:50:14.682Z,22.43
2023-04-21T15:52:43.411Z,22.92
2023-04-21T15:55:13.908Z,22.35
2023-04-21T15:57:41.532Z,22.60
2023-04-21T16:00:12.726Z,22.39
2023-04-21T16:02:40.008Z,22.81
2023-04-21T16:05:07.880Z,22.99
2023-04-21T16:07:35.146Z,23.00
2023-04-21T16:10:02.599Z,22.91
2023-04-21T16:12:32.946Z,23.09
2023-04-21T16:15:09.157Z,23.03
2023-04-21T16:17:43.841Z,23.31
2023-04-21T16:20:12.337Z,23.07
2023-04-21T16:22:39.369Z,23.04
2023-04-21T16:25:06.757Z,23.21
2023-04-21T16:27:33.862Z,22.38
2023-04-21T16:30:00.998Z,22.89
2023-04-21T16:32:28.082Z,22.95
2023-04-21T16:34:55.925Z,22.29
2023-04-21T16:37:23.828Z,23.10
2023-04-21T16:39:51.080Z,22.62
2023-04-21T16:42:18.335Z,22.85
2023-04-21T16:44:46.782Z,22.56
2023-04-21T16:47:14.595Z,22.82
2023-04-21T16:49:42.152Z,22.94
2023-04-21T16:52:09.323Z,22.73
2023-04-21T16:54:36.834Z,22.47
2023-04-21T16:57:04.002Z,22.66
2023-04-21T16:59:33.025Z,22.69
2023-04-21T17:02:00.831Z,22.53
2023-04-21T17:04:28.303Z,22.51
2023-04-21T17:06:55.617Z,22.49
2023-04-21T17:09:23.236Z,22.24
2023-04-21T17:11:50.167Z,22.47
2023-04-21T17:14:17.143Z,22.48
2023-04-21T17:16:44.689Z,22.73
2023-04-21T17:19:12.229Z,22.60
2023-04-21T17:21:39.215Z,22.79
2023-04-21T17:24:06.335Z,22.61
2023-04-21T17:26:33.704Z,22.29
2023-04-21T17:29:00.659Z,22.20
2023-04-21T17:31:33.020Z,22.36
2023-04-21T17:34:00.318Z,22.23
2023-04-21T17:36:31.004Z,22.24
2023-04-21T17:38:59.132Z,22.26
2023-04-21T17:41:27.251Z,22.48
2023-04-21T17:43:54.949Z,22.14
2023-04-21T17:46:25.034Z,22.20
2023-04-21T17:48:52.687Z,22.00
2023-04-21T17:51:20.347Z,22.07
2023-04-21T17:53:47.561Z,22.03
2023-04-21T17:56:15.028Z,22.05
2023-04-21T17:58:42.794Z,22.05
2023-04-21T18:01:10.151Z,21.52
2023-04-21T18:03:41.203Z,21.85
2023-04-21T18:06:10.689Z,21.42
2023-04-21T18:08:38.226Z,21.32
2023-04-21T18:11:06.373Z,22.01
2023-04-21T18:13:34.086Z,22.43
2023-04-21T18:16:01.681Z,21.38
2023-04-21T18:18:29.133Z,21.79
2023-04-21T18:20:56.234Z,21.23
2023-04-21T18:23:23.178Z,21.44
2023-04-21T18:25:50.958Z,21.66
2023-04-21T18:28:18.327Z,21.95
2023-04-21T18:30:45.563Z,21.82
2023-04-21T18:33:13.141Z,22.06
2023-04-21T18:35:41.914Z,21.59
2023-04-21T18:38:11.495Z,21.26
2023-04-21T18:40:40.494Z,21.05
2023-04-21T18:43:09.792Z,20.91
2023-04-21T18:45:37.840Z,20.99
2023-04-21T18:48:05.474Z,21.32
2023-04-21T18:50:35.227Z,21.56
2023-04-21T18:53:04.072Z,21.13
2023-04-21T18:55:33.411Z,20.88
2023-04-21T18:58:01.199Z,21.08
2023-04-21T19:00:28.321Z,21.20
2023-04-21T19:02:56.025Z,21.58
2023-04-21T19:05:23.067Z,21.93
2023-04-21T19:07:50.559Z,21.71
2023-04-21T19:10:19.327Z,21.19
2023-04-21T19:12:46.358Z,21.33
2023-04-21T19:15:13.847Z,21.69
2023-04-21T19:17:41.712Z,21.08
2023-04-21T19:20:10.072Z,21.29
2023-04-21T19:22:37.447Z,21.78
2023-04-21T19:25:06.178Z,21.80
2023-04-21T19:27:33.125Z,21.45
2023-04-21T19:30:00.726Z,21.32
2023-04-21T19:32:30.916Z,21.27
2023-04-21T19:34:57.978Z,21.33
2023-04-21T19:37:26.512Z,21.77
2023-04-21T19:39:53.619Z,21.56
2023-04-21T19:42:20.718Z,21.70
2023-04-21T19:44:48.101Z,21.66
2023-04-21T19:47:15.559Z,21.71
2023-04-21T19:49:42.679Z,20.95
2023-04-21T19:52:10.086Z,20.77
2023-04-21T19:54:38.069Z,20.32
2023-04-21T19:57:05.307Z,21.13
2023-04-21T19:59:34.032Z,21.46
2023-04-21T20:02:01.140Z,21.12
2023-04-21T20:04:28.634Z,21.05
2023-04-21T20:06:55.699Z,20.55
2023-04-21T20:09:22.643Z,21.32
2023-04-21T20:11:50.061Z,21.31
2023-04-21T20:14:18.328Z,20.68
2023-04-21T20:16:46.426Z,20.39
2023-04-21T20:19:15.146Z,21.28
2023-04-21T20:21:44.100Z,21.54
2023-04-21T20:24:12.308Z,21.14
2023-04-21T20:26:39.294Z,21.16
2023-04-21T20:29:06.480Z,21.37
2023-04-21T20:31:34.311Z,21.73
2023-04-21T20:34:01.306Z,21.63
2023-04-21T20:36:28.537Z,21.51
2023-04-21T20:38:57.407Z,21.70
2023-04-21T20:41:24.868Z,20.81
2023-04-21T20:43:52.365Z,21.29
2023-04-21T20:46:19.508Z,21.35
2023-04-21T20:48:47.112Z,21.18
2023-04-21T20:51:14.239Z,21.46
2023-04-21T20:53:41.225Z,21.14
2023-04-21T20:56:08.692Z,21.65
2023-04-21T20:58:36.159Z,21.64
2023-04-21T21:01:03.374Z,21.63
2023-04-21T21:03:31.046Z,21.50
2023-04-21T21:05:58.392Z,21.64
2023-04-21T21:08:25.650Z,21.22
2023-04-21T21:10:53.411Z,21.59
2023-04-21T21:13:20.519Z,21.72
2023-04-21T21:15:47.831Z,21.72
2023-04-21T21:18:15.447Z,21.83
2023-04-21T21:20:43.010Z,21.73
2023-04-21T21:23:11.689Z,21.70
2023-04-21T21:25:39.031Z,21.57
2023-04-21T21:28:07.045Z,21.52
2023-04-21T21:30:35.996Z,21.52
2023-04-21T21:33:03.038Z,21.44
2023-04-21T21:35:30.302Z,21.59
2023-04-21T21:37:57.380Z,21.59
2023-04-21T21:40:24.815Z,21.63
2023-04-21T21:42:51.868Z,21.48
2023-04-21T21:45:18.854Z,21.45
2023-04-21T21:47:46.520Z,21.40
2023-04-21T21:50:13.543Z,21.41
2023-04-21T21:52:40.525Z,21.32
2023-04-21T21:55:08.409Z,21.35
2023-04-21T21:57:35.493Z,21.41
2023-04-21T22:00:03.270Z,21.37
2023-04-21T22:02:32.172Z,21.33
2023-04-21T22:04:59.768Z,21.27
2023-04-21T22:07:26.857Z,21.30
2023-04-21T22:09:53.849Z,21.22
2023-04-21T22:12:21.453Z,21.09
2023-04-21T22:14:48.402Z,21.13
2023-04-21T22:17:15.919Z,21.13
2023-04-21T22:19:43.312Z,21.15
2023-04-21T22:22:10.840Z,21.25
2023-04-21T22:24:38.228Z,21.20
2023-04-21T22:27:05.355Z,21.03
2023-04-21T22:29:32.509Z,21.04
2023-04-21T22:32:00.048Z,20.88
2023-04-21T22:34:27.406Z,20.94
2023-04-21T22:36:54.825Z,20.62
2023-04-21T22:39:21.926Z,20.69
2023-04-21T22:41:49.952Z,20.83
2023-04-21T22:44:16.910Z,20.85
2023-04-21T22:46:44.503Z,20.72
2023-04-21T22:49:11.861Z,20.56
2023-04-21T22:51:38.997Z,20.70
2023-04-21T22:54:06.679Z,20.99
2023-04-21T22:56:34.027Z,20.87
2023-04-21T22:59:01.122Z,20.52
2023-04-21T23:01:29.179Z,20.71
2023-04-21T23:03:57.590Z,20.49
2023-04-21T23:06:25.261Z,20.54
2023-04-21T23:08:53.081Z,20.52
2023-04-21T23:11:20.770Z,20.23
2023-04-21T23:13:47.801Z,20.18
2023-04-21T23:16:15.325Z,20.18
2023-04-21T23:18:42.691Z,19.91
2023-04-21T23:21:09.766Z,20.31
2023-04-21T23:23:37.195Z,20.56
2023-04-21T23:26:04.586Z,20.87
2023-04-21T23:28:31.814Z,20.53
2023-04-21T23:30:59.208Z,20.67
2023-04-21T23:33:26.845Z,20.74
2023-04-21T23:35:54.849Z,20.66
2023-04-21T23:38:21.958Z,20.85
2023-04-21T23:40:48.992Z,20.72
2023-04-21T23:43:16.062Z,20.46
2023-04-21T23:45:43.437Z,20.68
2023-04-21T23:48:11.746Z,20.62
2023-04-21T23:50:39.230Z,20.42
2023-04-21T23:53:06.355Z,20.14
2023-04-21T23:55:33.445Z,20.42
2023-04-21T23:58:01.121Z,20.26
